In Rescue
 
Open Full Screen Window  High Contrast Mode
Wind Gusting 00 knots
05
July 25, 2021 8:35 AM EDT
Present Weather: Mist
Weather Information
Wind Direction
  300 °
Wind Speed
  05 kt (6 mph)
Wind Gust
  00 kt (0 mph)
Altimeter
29.91 in
Visibility
5 SM
Temperature
22° C
72° F
Dewpoint
21° C
70° F
Humidity
94%
1hr Rain Fall
00.00 in.
24hr Rain Fall
00.85 in.
Sky Condition
Overcast @ 11,000 ft
Broken @ 300 ft
LIFR

METAR KONZ 251235Z AUTO 30005KT 5SM BR BKN003 OVC110 22/21 A2991 RMK AO2 T02190205

FAA Disclaimer: The data displayed is for advisory purposes only and is not to be used for flight planning or operations.